CDT,Max TemperatureF,Mean TemperatureF,Min TemperatureF,Max Dew PointF,MeanDew PointF,Min DewpointF,Max Humidity, Mean Humidity, Min Humidity, Max Sea Level PressureIn, Mean Sea Level PressureIn, Min Sea Level PressureIn, Max VisibilityMiles, Mean VisibilityMiles, Min VisibilityMiles, Max Wind SpeedMPH, Mean Wind SpeedMPH, Max Gust SpeedMPH,PrecipitationIn, CloudCover, Events, WindDirDegrees
2012-9-1,89,80,71,72,68,64,83,70,52,30.02,29.98,29.95,10,10,7,16,6,22,0.00,1,,30
2012-9-2,91,76,60,72,64,55,88,69,43,30.00,29.95,29.89,10,10,5,6,1,,0.00,1,,126
2012-9-3,91,80,68,73,70,63,88,75,52,29.97,29.91,29.85,10,8,3,13,2,,0.03,1,Rain,96
2012-9-4,96,81,66,75,70,63,88,68,41,29.92,29.85,29.75,10,9,2,12,4,,0.00,1,,177
2012-9-5,89,76,60,70,61,48,88,62,25,29.96,29.86,29.75,10,9,2,15,4,21,0.00,1,,8
2012-9-6,91,72,53,66,55,48,88,59,24,30.03,29.93,29.81,10,10,7,14,3,20,0.00,1,,138
2012-9-7,75,67,57,64,58,48,83,68,47,30.12,29.94,29.77,10,10,10,20,6,26,0.00,2,,349
2012-9-8,84,65,46,54,41,21,87,52,10,30.19,30.09,29.97,10,10,4,15,4,23,0.00,1,,295
2012-9-9,78,64,50,54,46,39,82,56,24,30.25,30.17,30.07,10,10,10,10,5,,0.00,1,,41
2012-9-10,86,67,48,54,47,39,87,54,20,30.17,30.08,29.96,10,10,10,18,6,24,0.00,1,,174
2012-9-11,95,78,60,55,48,30,72,43,11,29.99,29.95,29.89,10,10,10,22,8,29,0.00,1,,183
2012-9-12,84,70,57,63,54,37,82,53,33,30.25,30.05,29.95,10,10,7,24,10,31,0.14,3,Rain,132
2012-9-13,66,58,51,54,50,46,88,77,56,30.43,30.37,30.24,10,10,7,18,9,30,0.82,3,Rain,30
2012-9-14,80,63,46,54,42,25,93,60,15,30.42,30.37,30.31,10,8,1,13,2,16,0.00,2,,192
2012-9-15,80,63,46,55,48,41,93,63,28,30.32,30.22,30.12,10,10,10,12,3,17,0.00,1,,157
2012-9-16,78,66,55,63,58,48,83,74,54,30.12,30.03,29.95,10,10,7,12,4,18,0.00,4,,189
2012-9-17,64,55,46,61,52,43,88,81,56,30.06,29.98,29.93,10,6,0,21,3,30,0.27,5,Fog-Rain,10
2012-9-18,71,54,37,45,37,23,87,54,17,30.15,30.07,29.98,10,10,10,13,3,17,0.00,1,,322
2012-9-19,91,72,53,48,43,28,77,43,12,30.02,29.90,29.78,10,10,10,24,8,36,0.00,1,,205
2012-9-20,77,60,44,50,40,21,82,54,14,30.09,30.02,29.97,10,10,10,9,1,,0.00,1,,308
2012-9-21,78,62,46,50,37,14,82,48,9,29.96,29.89,29.84,10,10,10,21,4,37,0.00,1,,319
2012-9-22,68,54,39,41,30,14,81,49,13,30.30,30.20,29.95,10,10,4,15,5,23,0.00,1,,356
2012-9-23,71,52,33,43,30,18,87,54,13,30.37,30.29,30.23,10,10,7,6,1,,0.00,1,,55
2012-9-24,78,61,44,55,41,30,76,54,19,30.23,30.03,29.84,10,10,5,13,3,16,0.00,1,Rain,153
2012-9-25,87,69,51,55,51,43,88,60,21,29.90,29.85,29.81,10,9,2,9,2,,0.00,1,Rain,54
2012-9-26,78,62,46,52,40,27,82,53,15,30.15,30.04,29.89,10,10,7,8,3,,0.00,1,,45
2012-9-27,80,58,35,45,30,-15,87,55,4,30.23,30.17,30.13,10,10,4,6,0,,0.00,1,,67
2012-9-28,78,60,42,55,43,37,82,62,23,30.23,30.17,30.13,10,10,7,6,1,,0.00,1,,98
2012-9-29,82,60,39,50,38,23,87,56,12,30.21,30.13,30.06,10,10,1,5,0,,0.00,1,,85
2012-9-30,84,64,44,50,40,19,87,53,9,30.06,29.98,29.91,10,10,7,5,0,,0.00,1,,10